sensor_id;sensor_type;location;lat;lon;timestamp;temperature;humidity
66722;SHT31;53633;49.932;10.884;2022-10-31T00:00:57;9.06;96.66
66722;SHT31;53633;49.932;10.884;2022-10-31T00:03:26;8.99;96.77
66722;SHT31;53633;49.932;10.884;2022-10-31T00:05:53;9.12;97.58
66722;SHT31;53633;49.932;10.884;2022-10-31T00:08:20;9.15;97.24
66722;SHT31;53633;49.932;10.884;2022-10-31T00:10:48;9.44;96.59
66722;SHT31;53633;49.932;10.884;2022-10-31T00:13:15;9.44;96.80
66722;SHT31;53633;49.932;10.884;2022-10-31T00:15:42;9.45;96.18
66722;SHT31;53633;49.932;10.884;2022-10-31T00:18:09;9.36;96.56
66722;SHT31;53633;49.932;10.884;2022-10-31T00:20:38;9.26;97.80
66722;SHT31;53633;49.932;10.884;2022-10-31T00:23:05;9.43;97.97
66722;SHT31;53633;49.932;10.884;2022-10-31T00:25:34;9.34;98.56
66722;SHT31;53633;49.932;10.884;2022-10-31T00:28:01;9.31;98.86
66722;SHT31;53633;49.932;10.884;2022-10-31T00:30:29;9.37;98.96
66722;SHT31;53633;49.932;10.884;2022-10-31T00:32:56;9.31;99.37
66722;SHT31;53633;49.932;10.884;2022-10-31T00:35:23;9.28;99.52
66722;SHT31;53633;49.932;10.884;2022-10-31T00:37:52;9.28;99.69
66722;SHT31;53633;49.932;10.884;2022-10-31T00:40:19;9.30;99.69
66722;SHT31;53633;49.932;10.884;2022-10-31T00:42:46;9.36;99.90
66722;SHT31;53633;49.932;10.884;2022-10-31T00:45:13;9.51;99.86
66722;SHT31;53633;49.932;10.884;2022-10-31T00:47:40;9.38;99.68
66722;SHT31;53633;49.932;10.884;2022-10-31T00:50:08;9.31;99.99
66722;SHT31;53633;49.932;10.884;2022-10-31T00:52:35;9.24;99.99
66722;SHT31;53633;49.932;10.884;2022-10-31T00:55:04;9.23;99.99
66722;SHT31;53633;49.932;10.884;2022-10-31T00:57:31;9.13;99.99
66722;SHT31;53633;49.932;10.884;2022-10-31T00:59:58;9.09;99.99
66722;SHT31;53633;49.932;10.884;2022-10-31T01:02:25;9.07;99.99
66722;SHT31;53633;49.932;10.884;2022-10-31T01:04:52;9.02;99.99
66722;SHT31;53633;49.932;10.884;2022-10-31T01:07:19;9.07;99.99
66722;SHT31;53633;49.932;10.884;2022-10-31T01:09:47;9.09;99.99
66722;SHT31;53633;49.932;10.884;2022-10-31T01:12:16;9.37;99.71
66722;SHT31;53633;49.932;10.884;2022-10-31T01:14:45;9.00;99.32
66722;SHT31;53633;49.932;10.884;2022-10-31T01:17:12;8.99;98.93
66722;SHT31;53633;49.932;10.884;2022-10-31T01:19:40;8.89;99.64
66722;SHT31;53633;49.932;10.884;2022-10-31T01:22:07;8.72;99.99
66722;SHT31;53633;49.932;10.884;2022-10-31T01:24:34;8.68;99.99
66722;SHT31;53633;49.932;10.884;2022-10-31T01:27:01;8.62;99.99
66722;SHT31;53633;49.932;10.884;2022-10-31T01:29:30;8.75;99.86
66722;SHT31;53633;49.932;10.884;2022-10-31T01:31:57;8.67;99.99
66722;SHT31;53633;49.932;10.884;2022-10-31T01:34:24;8.88;99.30
66722;SHT31;53633;49.932;10.884;2022-10-31T01:36:51;8.90;98.92
66722;SHT31;53633;49.932;10.884;2022-10-31T01:39:18;8.78;99.48
66722;SHT31;53633;49.932;10.884;2022-10-31T01:41:49;8.72;99.60
66722;SHT31;53633;49.932;10.884;2022-10-31T01:44:56;8.78;99.50
66722;SHT31;53633;49.932;10.884;2022-10-31T01:47:35;8.80;99.91
66722;SHT31;53633;49.932;10.884;2022-10-31T01:50:09;8.80;99.86
66722;SHT31;53633;49.932;10.884;2022-10-31T01:52:39;8.80;99.81
66722;SHT31;53633;49.932;10.884;2022-10-31T01:55:11;8.80;99.91
66722;SHT31;53633;49.932;10.884;2022-10-31T01:57:42;8.78;99.99
66722;SHT31;53633;49.932;10.884;2022-10-31T02:00:14;8.79;99.99
66722;SHT31;53633;49.932;10.884;2022-10-31T02:02:42;8.82;99.79
66722;SHT31;53633;49.932;10.884;2022-10-31T02:05:12;9.07;99.20
66722;SHT31;53633;49.932;10.884;2022-10-31T02:07:43;8.96;99.16
66722;SHT31;53633;49.932;10.884;2022-10-31T02:10:12;8.95;99.36
66722;SHT31;53633;49.932;10.884;2022-10-31T02:12:40;8.80;99.29
66722;SHT31;53633;49.932;10.884;2022-10-31T02:15:09;8.76;99.68
66722;SHT31;53633;49.932;10.884;2022-10-31T02:17:37;8.88;99.28
66722;SHT31;53633;49.932;10.884;2022-10-31T02:20:12;8.69;99.27
66722;SHT31;53633;49.932;10.884;2022-10-31T02:23:05;8.62;99.62
66722;SHT31;53633;49.932;10.884;2022-10-31T02:25:55;8.58;99.91
66722;SHT31;53633;49.932;10.884;2022-10-31T02:28:39;8.62;99.77
66722;SHT31;53633;49.932;10.884;2022-10-31T02:31:17;8.55;99.66
66722;SHT31;53633;49.932;10.884;2022-10-31T02:33:50;8.51;99.52
66722;SHT31;53633;49.932;10.884;2022-10-31T02:36:22;8.47;99.52
66722;SHT31;53633;49.932;10.884;2022-10-31T02:38:56;8.47;99.45
66722;SHT31;53633;49.932;10.884;2022-10-31T02:41:34;8.52;98.93
66722;SHT31;53633;49.932;10.884;2022-10-31T02:44:09;8.93;97.65
66722;SHT31;53633;49.932;10.884;2022-10-31T02:46:44;8.72;97.78
66722;SHT31;53633;49.932;10.884;2022-10-31T02:49:24;8.69;97.95
66722;SHT31;53633;49.932;10.884;2022-10-31T02:51:53;8.65;98.36
66722;SHT31;53633;49.932;10.884;2022-10-31T02:54:22;8.62;98.20
66722;SHT31;53633;49.932;10.884;2022-10-31T02:56:52;8.95;97.20
66722;SHT31;53633;49.932;10.884;2022-10-31T02:59:19;8.83;96.81
66722;SHT31;53633;49.932;10.884;2022-10-31T03:02:11;8.72;98.30
66722;SHT31;53633;49.932;10.884;2022-10-31T03:05:14;8.58;99.14
66722;SHT31;53633;49.932;10.884;2022-10-31T03:07:51;8.95;98.49
66722;SHT31;53633;49.932;10.884;2022-10-31T03:10:25;8.95;98.83
66722;SHT31;53633;49.932;10.884;2022-10-31T03:13:01;8.93;99.34
66722;SHT31;53633;49.932;10.884;2022-10-31T03:15:32;9.15;98.62
66722;SHT31;53633;49.932;10.884;2022-10-31T03:18:05;9.30;98.19
66722;SHT31;53633;49.932;10.884;2022-10-31T03:20:37;9.23;98.70
66722;SHT31;53633;49.932;10.884;2022-10-31T03:23:06;9.00;99.71
66722;SHT31;53633;49.932;10.884;2022-10-31T03:25:34;8.86;99.99
66722;SHT31;53633;49.932;10.884;2022-10-31T03:28:04;9.23;99.98
66722;SHT31;53633;49.932;10.884;2022-10-31T03:30:35;9.48;99.22
66722;SHT31;53633;49.932;10.884;2022-10-31T03:33:06;9.45;99.14
66722;SHT31;53633;49.932;10.884;2022-10-31T03:35:35;9.40;99.47
66722;SHT31;53633;49.932;10.884;2022-10-31T03:38:03;9.41;99.65
66722;SHT31;53633;49.932;10.884;2022-10-31T03:40:35;9.40;99.42
66722;SHT31;53633;49.932;10.884;2022-10-31T03:43:06;9.64;98.69
66722;SHT31;53633;49.932;10.884;2022-10-31T03:45:39;9.61;98.70
66722;SHT31;53633;49.932;10.884;2022-10-31T03:48:09;9.67;98.58
66722;SHT31;53633;49.932;10.884;2022-10-31T03:50:40;9.40;98.55
66722;SHT31;53633;49.932;10.884;2022-10-31T03:53:15;9.52;98.65
66722;SHT31;53633;49.932;10.884;2022-10-31T03:55:49;9.48;99.18
66722;SHT31;53633;49.932;10.884;2022-10-31T03:58:21;9.65;98.70
66722;SHT31;53633;49.932;10.884;2022-10-31T04:00:52;9.52;98.73
66722;SHT31;53633;49.932;10.884;2022-10-31T04:03:24;9.30;99.71
66722;SHT31;53633;49.932;10.884;2022-10-31T04:05:55;9.30;99.99
66722;SHT31;53633;49.932;10.884;2022-10-31T04:08:26;9.36;99.99
66722;SHT31;53633;49.932;10.884;2022-10-31T04:10:56;9.47;99.89
66722;SHT31;53633;49.932;10.884;2022-10-31T04:13:26;9.61;99.46
66722;SHT31;53633;49.932;10.884;2022-10-31T04:15:55;9.61;99.44
66722;SHT31;53633;49.932;10.884;2022-10-31T04:18:25;9.47;99.82
66722;SHT31;53633;49.932;10.884;2022-10-31T04:21:00;9.40;99.99
66722;SHT31;53633;49.932;10.884;2022-10-31T04:23:28;9.37;99.99
66722;SHT31;53633;49.932;10.884;2022-10-31T04:25:55;9.22;99.99
66722;SHT31;53633;49.932;10.884;2022-10-31T04:28:23;9.28;99.99
66722;SHT31;53633;49.932;10.884;2022-10-31T04:30:49;9.59;99.99
66722;SHT31;53633;49.932;10.884;2022-10-31T04:33:17;9.59;99.99
66722;SHT31;53633;49.932;10.884;2022-10-31T04:35:45;9.78;99.34
66722;SHT31;53633;49.932;10.884;2022-10-31T04:38:12;9.86;98.98
66722;SHT31;53633;49.932;10.884;2022-10-31T04:40:40;9.86;98.98
66722;SHT31;53633;49.932;10.884;2022-10-31T04:43:06;10.03;98.60
66722;SHT31;53633;49.932;10.884;2022-10-31T04:45:34;10.10;98.22
66722;SHT31;53633;49.932;10.884;2022-10-31T04:48:00;10.26;97.72
66722;SHT31;53633;49.932;10.884;2022-10-31T04:50:29;10.37;97.34
66722;SHT31;53633;49.932;10.884;2022-10-31T04:52:57;10.39;96.81
66722;SHT31;53633;49.932;10.884;2022-10-31T04:55:24;10.30;96.88
66722;SHT31;53633;49.932;10.884;2022-10-31T04:57:52;10.29;97.07
66722;SHT31;53633;49.932;10.884;2022-10-31T05:00:21;10.37;96.74
66722;SHT31;53633;49.932;10.884;2022-10-31T05:02:50;10.20;97.48
66722;SHT31;53633;49.932;10.884;2022-10-31T05:05:19;10.24;97.14
66722;SHT31;53633;49.932;10.884;2022-10-31T05:07:48;10.34;96.33
66722;SHT31;53633;49.932;10.884;2022-10-31T05:10:18;10.28;96.79
66722;SHT31;53633;49.932;10.884;2022-10-31T05:12:45;10.44;96.23
66722;SHT31;53633;49.932;10.884;2022-10-31T05:15:13;10.34;96.19
66722;SHT31;53633;49.932;10.884;2022-10-31T05:17:40;10.53;95.64
66722;SHT31;53633;49.932;10.884;2022-10-31T05:20:08;10.56;95.34
66722;SHT31;53633;49.932;10.884;2022-10-31T05:22:35;10.46;95.07
66722;SHT31;53633;49.932;10.884;2022-10-31T05:25:03;10.47;95.24
66722;SHT31;53633;49.932;10.884;2022-10-31T05:27:32;10.47;94.93
66722;SHT31;53633;49.932;10.884;2022-10-31T05:29:59;10.58;94.50
66722;SHT31;53633;49.932;10.884;2022-10-31T05:32:37;10.61;94.26
66722;SHT31;53633;49.932;10.884;2022-10-31T05:35:05;10.58;94.28
66722;SHT31;53633;49.932;10.884;2022-10-31T05:37:32;10.50;94.50
66722;SHT31;53633;49.932;10.884;2022-10-31T05:39:59;10.58;94.40
66722;SHT31;53633;49.932;10.884;2022-10-31T05:42:35;10.57;94.29
66722;SHT31;53633;49.932;10.884;2022-10-31T05:45:04;10.44;94.60
66722;SHT31;53633;49.932;10.884;2022-10-31T05:47:32;10.48;94.60
66722;SHT31;53633;49.932;10.884;2022-10-31T05:49:59;10.46;94.75
66722;SHT31;53633;49.932;10.884;2022-10-31T05:52:26;10.64;94.30
66722;SHT31;53633;49.932;10.884;2022-10-31T05:54:53;10.48;94.70
66722;SHT31;53633;49.932;10.884;2022-10-31T05:57:20;10.36;95.54
66722;SHT31;53633;49.932;10.884;2022-10-31T05:59:50;10.33;95.91
66722;SHT31;53633;49.932;10.884;2022-10-31T06:02:21;10.40;95.64
66722;SHT31;53633;49.932;10.884;2022-10-31T06:04:48;10.63;94.74
66722;SHT31;53633;49.932;10.884;2022-10-31T06:07:15;10.54;95.12
66722;SHT31;53633;49.932;10.884;2022-10-31T06:09:41;10.34;96.06
66722;SHT31;53633;49.932;10.884;2022-10-31T06:12:09;10.03;97.60
66722;SHT31;53633;49.932;10.884;2022-10-31T06:14:36;10.01;98.01
66722;SHT31;53633;49.932;10.884;2022-10-31T06:17:04;10.23;97.18
66722;SHT31;53633;49.932;10.884;2022-10-31T06:19:31;10.39;96.71
66722;SHT31;53633;49.932;10.884;2022-10-31T06:21:58;10.58;95.99
66722;SHT31;53633;49.932;10.884;2022-10-31T06:24:25;10.51;96.27
66722;SHT31;53633;49.932;10.884;2022-10-31T06:26:54;10.50;96.60
66722;SHT31;53633;49.932;10.884;2022-10-31T06:29:21;10.37;97.23
66722;SHT31;53633;49.932;10.884;2022-10-31T06:31:50;10.36;97.66
66722;SHT31;53633;49.932;10.884;2022-10-31T06:34:19;10.37;97.70
66722;SHT31;53633;49.932;10.884;2022-10-31T06:36:46;10.34;97.95
66722;SHT31;53633;49.932;10.884;2022-10-31T06:39:14;10.50;97.80
66722;SHT31;53633;49.932;10.884;2022-10-31T06:41:41;10.82;95.96
66722;SHT31;53633;49.932;10.884;2022-10-31T06:44:08;10.65;97.59
66722;SHT31;53633;49.932;10.884;2022-10-31T06:46:35;10.37;98.12
66722;SHT31;53633;49.932;10.884;2022-10-31T06:49:02;10.30;99.44
66722;SHT31;53633;49.932;10.884;2022-10-31T06:51:31;10.32;98.93
66722;SHT31;53633;49.932;10.884;2022-10-31T06:53:58;10.44;99.19
66722;SHT31;53633;49.932;10.884;2022-10-31T06:56:25;10.44;99.43
66722;SHT31;53633;49.932;10.884;2022-10-31T06:58:52;10.61;98.98
66722;SHT31;53633;49.932;10.884;2022-10-31T07:01:19;10.77;98.24
66722;SHT31;53633;49.932;10.884;2022-10-31T07:03:46;10.85;97.69
66722;SHT31;53633;49.932;10.884;2022-10-31T07:06:13;10.86;97.68
66722;SHT31;53633;49.932;10.884;2022-10-31T07:08:41;10.88;97.54
66722;SHT31;53633;49.932;10.884;2022-10-31T07:11:08;11.01;97.30
66722;SHT31;53633;49.932;10.884;2022-10-31T07:13:36;11.09;96.95
66722;SHT31;53633;49.932;10.884;2022-10-31T07:16:04;11.18;96.27
66722;SHT31;53633;49.932;10.884;2022-10-31T07:18:31;11.13;96.07
66722;SHT31;53633;49.932;10.884;2022-10-31T07:20:59;11.15;96.23
66722;SHT31;53633;49.932;10.884;2022-10-31T07:23:26;11.11;96.32
66722;SHT31;53633;49.932;10.884;2022-10-31T07:25:56;11.20;96.52
66722;SHT31;53633;49.932;10.884;2022-10-31T07:28:24;11.23;96.72
66722;SHT31;53633;49.932;10.884;2022-10-31T07:30:51;11.33;95.72
66722;SHT31;53633;49.932;10.884;2022-10-31T07:33:19;11.37;94.92
66722;SHT31;53633;49.932;10.884;2022-10-31T07:35:49;11.30;95.61
66722;SHT31;53633;49.932;10.884;2022-10-31T07:38:16;11.44;94.40
66722;SHT31;53633;49.932;10.884;2022-10-31T07:40:52;11.37;95.31
66722;SHT31;53633;49.932;10.884;2022-10-31T07:43:20;11.54;94.25
66722;SHT31;53633;49.932;10.884;2022-10-31T07:45:52;11.59;94.34
66722;SHT31;53633;49.932;10.884;2022-10-31T07:48:22;11.77;93.40
66722;SHT31;53633;49.932;10.884;2022-10-31T07:50:49;11.81;93.28
66722;SHT31;53633;49.932;10.884;2022-10-31T07:53:16;11.77;93.77
66722;SHT31;53633;49.932;10.884;2022-10-31T07:55:43;11.84;93.25
66722;SHT31;53633;49.932;10.884;2022-10-31T07:58:11;11.74;94.68
66722;SHT31;53633;49.932;10.884;2022-10-31T08:00:42;11.85;93.45
66722;SHT31;53633;49.932;10.884;2022-10-31T08:03:10;11.99;92.88
66722;SHT31;53633;49.932;10.884;2022-10-31T08:05:38;12.09;92.51
66722;SHT31;53633;49.932;10.884;2022-10-31T08:08:06;12.04;93.15
66722;SHT31;53633;49.932;10.884;2022-10-31T08:10:33;12.18;92.68
66722;SHT31;53633;49.932;10.884;2022-10-31T08:13:04;12.18;92.34
66722;SHT31;53633;49.932;10.884;2022-10-31T08:15:32;12.18;92.63
66722;SHT31;53633;49.932;10.884;2022-10-31T08:18:01;12.24;92.27
66722;SHT31;53633;49.932;10.884;2022-10-31T08:20:29;12.18;92.43
66722;SHT31;53633;49.932;10.884;2022-10-31T08:23:04;12.14;92.69
66722;SHT31;53633;49.932;10.884;2022-10-31T08:25:32;12.24;92.34
66722;SHT31;53633;49.932;10.884;2022-10-31T08:28:05;12.28;92.61
66722;SHT31;53633;49.932;10.884;2022-10-31T08:30:34;12.32;92.37
66722;SHT31;53633;49.932;10.884;2022-10-31T08:33:04;12.39;92.07
66722;SHT31;53633;49.932;10.884;2022-10-31T08:35:32;12.46;91.70
66722;SHT31;53633;49.932;10.884;2022-10-31T08:37:59;12.36;92.41
66722;SHT31;53633;49.932;10.884;2022-10-31T08:40:29;12.39;91.84
66722;SHT31;53633;49.932;10.884;2022-10-31T08:42:57;12.39;92.71
66722;SHT31;53633;49.932;10.884;2022-10-31T08:45:26;12.42;91.93
66722;SHT31;53633;49.932;10.884;2022-10-31T08:48:00;12.32;92.10
66722;SHT31;53633;49.932;10.884;2022-10-31T08:50:31;12.33;91.94
66722;SHT31;53633;49.932;10.884;2022-10-31T08:53:02;12.32;92.34
66722;SHT31;53633;49.932;10.884;2022-10-31T08:55:32;12.40;91.51
66722;SHT31;53633;49.932;10.884;2022-10-31T08:57:59;12.40;91.43
66722;SHT31;53633;49.932;10.884;2022-10-31T09:00:27;12.42;91.74
66722;SHT31;53633;49.932;10.884;2022-10-31T09:02:57;12.54;91.15
66722;SHT31;53633;49.932;10.884;2022-10-31T09:05:24;12.61;91.26
66722;SHT31;53633;49.932;10.884;2022-10-31T09:07:55;12.54;91.21
66722;SHT31;53633;49.932;10.884;2022-10-31T09:10:22;12.54;91.14
66722;SHT31;53633;49.932;10.884;2022-10-31T09:12:54;12.06;92.66
66722;SHT31;53633;49.932;10.884;2022-10-31T09:15:30;12.02;93.13
66722;SHT31;53633;49.932;10.884;2022-10-31T09:18:00;11.89;93.70
66722;SHT31;53633;49.932;10.884;2022-10-31T09:20:27;12.26;93.37
66722;SHT31;53633;49.932;10.884;2022-10-31T09:23:01;12.57;92.28
66722;SHT31;53633;49.932;10.884;2022-10-31T09:25:28;12.67;91.79
66722;SHT31;53633;49.932;10.884;2022-10-31T09:27:56;12.72;91.51
66722;SHT31;53633;49.932;10.884;2022-10-31T09:30:24;12.74;91.18
66722;SHT31;53633;49.932;10.884;2022-10-31T09:32:56;12.84;90.89
66722;SHT31;53633;49.932;10.884;2022-10-31T09:35:24;12.83;90.91
66722;SHT31;53633;49.932;10.884;2022-10-31T09:37:55;12.91;90.68
66722;SHT31;53633;49.932;10.884;2022-10-31T09:40:27;12.88;90.79
66722;SHT31;53633;49.932;10.884;2022-10-31T09:43:02;12.97;90.36
66722;SHT31;53633;49.932;10.884;2022-10-31T09:45:36;13.02;90.25
66722;SHT31;53633;49.932;10.884;2022-10-31T09:48:14;13.19;89.88
66722;SHT31;53633;49.932;10.884;2022-10-31T09:50:46;13.26;89.63
66722;SHT31;53633;49.932;10.884;2022-10-31T09:53:22;13.22;90.05
66722;SHT31;53633;49.932;10.884;2022-10-31T09:55:52;13.31;89.86
66722;SHT31;53633;49.932;10.884;2022-10-31T09:58:23;13.32;89.79
66722;SHT31;53633;49.932;10.884;2022-10-31T10:01:03;13.36;89.96
66722;SHT31;53633;49.932;10.884;2022-10-31T10:03:34;13.40;89.99
66722;SHT31;53633;49.932;10.884;2022-10-31T10:06:09;13.50;89.93
66722;SHT31;53633;49.932;10.884;2022-10-31T10:08:39;13.55;89.68
66722;SHT31;53633;49.932;10.884;2022-10-31T10:11:22;13.60;89.41
66722;SHT31;53633;49.932;10.884;2022-10-31T10:14:08;13.39;89.50
66722;SHT31;53633;49.932;10.884;2022-10-31T10:16:51;13.49;89.63
66722;SHT31;53633;49.932;10.884;2022-10-31T10:19:29;13.55;89.39
66722;SHT31;53633;49.932;10.884;2022-10-31T10:22:09;13.57;89.20
66722;SHT31;53633;49.932;10.884;2022-10-31T10:24:54;13.66;88.85
66722;SHT31;53633;49.932;10.884;2022-10-31T10:27:30;13.80;88.82
66722;SHT31;53633;49.932;10.884;2022-10-31T10:30:03;13.49;90.06
66722;SHT31;53633;49.932;10.884;2022-10-31T10:32:40;13.76;89.06
66722;SHT31;53633;49.932;10.884;2022-10-31T10:35:20;13.78;89.57
66722;SHT31;53633;49.932;10.884;2022-10-31T10:37:52;13.98;88.82
66722;SHT31;53633;49.932;10.884;2022-10-31T10:40:21;14.18;88.14
66722;SHT31;53633;49.932;10.884;2022-10-31T10:42:57;14.38;87.44
66722;SHT31;53633;49.932;10.884;2022-10-31T10:45:26;14.34;87.63
66722;SHT31;53633;49.932;10.884;2022-10-31T10:47:59;14.39;87.79
66722;SHT31;53633;49.932;10.884;2022-10-31T10:50:31;14.53;87.40
66722;SHT31;53633;49.932;10.884;2022-10-31T10:53:02;14.56;86.92
66722;SHT31;53633;49.932;10.884;2022-10-31T10:55:36;14.24;87.87
66722;SHT31;53633;49.932;10.884;2022-10-31T10:58:09;14.14;89.27
66722;SHT31;53633;49.932;10.884;2022-10-31T11:00:39;14.05;89.19
66722;SHT31;53633;49.932;10.884;2022-10-31T11:03:07;14.18;89.21
66722;SHT31;53633;49.932;10.884;2022-10-31T11:05:37;14.39;88.30
66722;SHT31;53633;49.932;10.884;2022-10-31T11:08:06;14.55;88.07
66722;SHT31;53633;49.932;10.884;2022-10-31T11:10:34;14.58;88.10
66722;SHT31;53633;49.932;10.884;2022-10-31T11:13:17;14.52;88.87
66722;SHT31;53633;49.932;10.884;2022-10-31T11:15:53;14.68;88.68
66722;SHT31;53633;49.932;10.884;2022-10-31T11:18:24;14.83;88.00
66722;SHT31;53633;49.932;10.884;2022-10-31T11:20:53;14.93;87.27
66722;SHT31;53633;49.932;10.884;2022-10-31T11:23:22;14.90;87.54
66722;SHT31;53633;49.932;10.884;2022-10-31T11:25:51;14.93;87.57
66722;SHT31;53633;49.932;10.884;2022-10-31T11:28:21;14.94;87.24
66722;SHT31;53633;49.932;10.884;2022-10-31T11:30:51;15.01;87.22
66722;SHT31;53633;49.932;10.884;2022-10-31T11:33:24;15.08;86.80
66722;SHT31;53633;49.932;10.884;2022-10-31T11:35:52;15.14;86.87
66722;SHT31;53633;49.932;10.884;2022-10-31T11:38:26;15.27;86.76
66722;SHT31;53633;49.932;10.884;2022-10-31T11:40:58;15.25;86.82
66722;SHT31;53633;49.932;10.884;2022-10-31T11:43:27;15.25;86.81
66722;SHT31;53633;49.932;10.884;2022-10-31T11:45:54;15.17;87.27
66722;SHT31;53633;49.932;10.884;2022-10-31T11:48:24;15.16;87.14
66722;SHT31;53633;49.932;10.884;2022-10-31T11:50:53;15.17;87.07
66722;SHT31;53633;49.932;10.884;2022-10-31T11:53:27;15.17;87.24
66722;SHT31;53633;49.932;10.884;2022-10-31T11:56:05;15.14;87.98
66722;SHT31;53633;49.932;10.884;2022-10-31T11:58:34;15.23;87.53
66722;SHT31;53633;49.932;10.884;2022-10-31T12:01:01;15.23;87.48
66722;SHT31;53633;49.932;10.884;2022-10-31T12:03:43;15.16;87.83
66722;SHT31;53633;49.932;10.884;2022-10-31T12:06:19;15.14;87.80
66722;SHT31;53633;49.932;10.884;2022-10-31T12:08:48;15.06;88.23
66722;SHT31;53633;49.932;10.884;2022-10-31T12:11:27;15.12;88.06
66722;SHT31;53633;49.932;10.884;2022-10-31T12:14:08;15.11;88.12
66722;SHT31;53633;49.932;10.884;2022-10-31T12:16:44;15.16;88.19
66722;SHT31;53633;49.932;10.884;2022-10-31T12:19:23;15.24;87.58
66722;SHT31;53633;49.932;10.884;2022-10-31T12:22:22;15.24;87.67
66722;SHT31;53633;49.932;10.884;2022-10-31T12:25:02;15.35;87.50
66722;SHT31;53633;49.932;10.884;2022-10-31T12:27:49;15.45;87.28
66722;SHT31;53633;49.932;10.884;2022-10-31T12:30:21;15.56;87.24
66722;SHT31;53633;49.932;10.884;2022-10-31T12:33:15;15.52;87.17
66722;SHT31;53633;49.932;10.884;2022-10-31T12:35:51;15.66;86.70
66722;SHT31;53633;49.932;10.884;2022-10-31T12:38:32;15.67;86.80
66722;SHT31;53633;49.932;10.884;2022-10-31T12:41:19;15.72;86.83
66722;SHT31;53633;49.932;10.884;2022-10-31T12:43:50;15.78;86.38
66722;SHT31;53633;49.932;10.884;2022-10-31T12:46:31;15.89;86.18
66722;SHT31;53633;49.932;10.884;2022-10-31T12:49:20;16.00;85.98
66722;SHT31;53633;49.932;10.884;2022-10-31T12:52:00;15.99;85.93
66722;SHT31;53633;49.932;10.884;2022-10-31T12:54:44;15.92;86.57
66722;SHT31;53633;49.932;10.884;2022-10-31T12:57:22;16.01;86.19
66722;SHT31;53633;49.932;10.884;2022-10-31T12:59:53;16.04;86.58
66722;SHT31;53633;49.932;10.884;2022-10-31T13:02:27;16.03;86.54
66722;SHT31;53633;49.932;10.884;2022-10-31T13:04:57;15.97;86.97
66722;SHT31;53633;49.932;10.884;2022-10-31T13:07:31;16.00;87.46
66722;SHT31;53633;49.932;10.884;2022-10-31T13:10:05;16.01;86.94
66722;SHT31;53633;49.932;10.884;2022-10-31T13:12:35;16.04;87.64
66722;SHT31;53633;49.932;10.884;2022-10-31T13:15:11;16.01;87.01
66722;SHT31;53633;49.932;10.884;2022-10-31T13:17:44;16.04;87.45
66722;SHT31;53633;49.932;10.884;2022-10-31T13:20:20;15.96;88.21
66722;SHT31;53633;49.932;10.884;2022-10-31T13:22:52;15.89;88.61
66722;SHT31;53633;49.932;10.884;2022-10-31T13:25:23;16.06;87.84
66722;SHT31;53633;49.932;10.884;2022-10-31T13:27:55;16.07;87.78
66722;SHT31;53633;49.932;10.884;2022-10-31T13:30:25;16.06;88.36
66722;SHT31;53633;49.932;10.884;2022-10-31T13:33:04;16.10;88.25
66722;SHT31;53633;49.932;10.884;2022-10-31T13:35:38;16.09;88.26
66722;SHT31;53633;49.932;10.884;2022-10-31T13:38:15;16.10;88.11
66722;SHT31;53633;49.932;10.884;2022-10-31T13:40:50;16.13;88.71
66722;SHT31;53633;49.932;10.884;2022-10-31T13:43:26;16.16;88.96
66722;SHT31;53633;49.932;10.884;2022-10-31T13:45:55;16.22;88.68
66722;SHT31;53633;49.932;10.884;2022-10-31T13:48:37;16.18;89.41
66722;SHT31;53633;49.932;10.884;2022-10-31T13:51:06;16.11;89.25
66722;SHT31;53633;49.932;10.884;2022-10-31T13:53:42;16.20;89.12
66722;SHT31;53633;49.932;10.884;2022-10-31T13:56:15;16.13;89.42
66722;SHT31;53633;49.932;10.884;2022-10-31T13:58:57;16.16;89.84
66722;SHT31;53633;49.932;10.884;2022-10-31T14:01:25;16.13;90.25
66722;SHT31;53633;49.932;10.884;2022-10-31T14:04:02;16.11;89.87
66722;SHT31;53633;49.932;10.884;2022-10-31T14:06:42;16.11;89.82
66722;SHT31;53633;49.932;10.884;2022-10-31T14:09:24;16.22;89.78
66722;SHT31;53633;49.932;10.884;2022-10-31T14:11:52;16.17;89.76
66722;SHT31;53633;49.932;10.884;2022-10-31T14:14:20;16.18;90.00
66722;SHT31;53633;49.932;10.884;2022-10-31T14:16:54;16.07;90.48
66722;SHT31;53633;49.932;10.884;2022-10-31T14:19:23;16.07;90.36
66722;SHT31;53633;49.932;10.884;2022-10-31T14:21:51;15.97;90.52
66722;SHT31;53633;49.932;10.884;2022-10-31T14:24:33;16.01;90.40
66722;SHT31;53633;49.932;10.884;2022-10-31T14:27:02;16.00;90.52
66722;SHT31;53633;49.932;10.884;2022-10-31T14:29:31;16.00;90.27
66722;SHT31;53633;49.932;10.884;2022-10-31T14:32:03;15.97;90.39
66722;SHT31;53633;49.932;10.884;2022-10-31T14:34:39;15.96;90.33
66722;SHT31;53633;49.932;10.884;2022-10-31T14:40:18;15.86;90.37
66722;SHT31;53633;49.932;10.884;2022-10-31T14:43:14;15.78;90.79
66722;SHT31;53633;49.932;10.884;2022-10-31T14:45:49;15.66;90.82
66722;SHT31;53633;49.932;10.884;2022-10-31T14:51:19;15.54;91.25
66722;SHT31;53633;49.932;10.884;2022-10-31T14:53:48;15.55;91.15
66722;SHT31;53633;49.932;10.884;2022-10-31T14:56:20;15.48;91.50
66722;SHT31;53633;49.932;10.884;2022-10-31T14:58:49;15.36;91.80
66722;SHT31;53633;49.932;10.884;2022-10-31T15:01:23;15.32;92.23
66722;SHT31;53633;49.932;10.884;2022-10-31T15:03:51;15.25;92.30
66722;SHT31;53633;49.932;10.884;2022-10-31T15:06:42;15.21;92.57
66722;SHT31;53633;49.932;10.884;2022-10-31T15:09:21;15.16;92.64
66722;SHT31;53633;49.932;10.884;2022-10-31T15:11:48;15.14;92.73
66722;SHT31;53633;49.932;10.884;2022-10-31T15:14:24;15.16;92.65
66722;SHT31;53633;49.932;10.884;2022-10-31T15:16:51;15.12;92.58
66722;SHT31;53633;49.932;10.884;2022-10-31T15:19:22;15.14;92.71
66722;SHT31;53633;49.932;10.884;2022-10-31T15:21:52;15.01;93.29
66722;SHT31;53633;49.932;10.884;2022-10-31T15:24:20;14.89;93.77
66722;SHT31;53633;49.932;10.884;2022-10-31T15:26:52;14.84;93.94
66722;SHT31;53633;49.932;10.884;2022-10-31T15:29:21;14.84;93.73
66722;SHT31;53633;49.932;10.884;2022-10-31T15:31:49;14.73;94.30
66722;SHT31;53633;49.932;10.884;2022-10-31T15:34:24;14.68;94.46
66722;SHT31;53633;49.932;10.884;2022-10-31T15:36:53;14.72;94.84
66722;SHT31;53633;49.932;10.884;2022-10-31T15:39:20;14.60;95.05
66722;SHT31;53633;49.932;10.884;2022-10-31T15:41:50;14.60;94.73
66722;SHT31;53633;49.932;10.884;2022-10-31T15:44:23;14.55;94.80
66722;SHT31;53633;49.932;10.884;2022-10-31T15:46:53;14.51;94.96
66722;SHT31;53633;49.932;10.884;2022-10-31T15:49:29;14.32;95.63
66722;SHT31;53633;49.932;10.884;2022-10-31T15:52:10;14.35;95.35